Time;durP1;ratioP1;P1;durP2;ratioP2;P2;SDS_P1;SDS_P2;PMS_P1;PMS_P2;Temp;Humidity;BMP_temperature;BMP_pressure;BME280_temperature;BME280_humidity;BME280_pressure;Samples;Min_cycle;Max_cycle;Signal;HPM_P1;HPM_P2
2021/08/08 00:00:22;;;;;;;3.07;1.10;;;19.00;51.20;;;;;;4809093;28;20616;-79
2021/08/08 00:02:45;;;;;;;3.83;1.37;;;18.90;51.10;;;;;;4807246;28;20209;-84
2021/08/08 00:05:09;;;;;;;2.20;0.80;;;19.10;52.00;;;;;;4814082;28;20689;-82
2021/08/08 00:07:32;;;;;;;2.27;0.73;;;19.40;51.30;;;;;;4805806;28;20219;-82
2021/08/08 00:09:54;;;;;;;1.73;0.70;;;19.20;51.30;;;;;;4786018;28;20250;-80
2021/08/08 00:12:18;;;;;;;2.50;0.83;;;;;;;;;;4808622;28;20197;-83
2021/08/08 00:14:41;;;;;;;2.90;1.10;;;;;;;;;;4807925;28;20193;-76
2021/08/08 00:17:06;;;;;;;2.60;0.90;;;19.10;51.90;;;;;;4820286;28;20207;-74
2021/08/08 00:19:29;;;;;;;2.63;0.90;;;;;;;;;;4808477;28;20196;-83
2021/08/08 00:21:51;;;;;;;0.87;0.47;;;19.60;52.00;;;;;;4806003;28;20243;-83
2021/08/08 00:24:14;;;;;;;2.23;0.87;;;19.70;51.60;;;;;;4814032;28;20196;-88
2021/08/08 00:26:36;;;;;;;5.23;1.53;;;;;;;;;;4825384;28;20273;-78
2021/08/08 00:28:59;;;;;;;1.73;0.70;;;;;;;;;;4799821;28;20685;-74
2021/08/08 00:31:24;;;;;;;2.57;0.93;;;;;;;;;;4813766;28;20204;-85
2021/08/08 00:33:50;;;;;;;4.33;1.40;;;19.50;51.60;;;;;;4795678;28;20532;-75
2021/08/08 00:36:14;;;;;;;2.43;0.83;;;19.90;52.30;;;;;;4822988;28;20205;-75
2021/08/08 00:38:37;;;;;;;2.97;1.13;;;19.20;51.40;;;;;;4799696;28;20195;-75
2021/08/08 00:41:00;;;;;;;2.07;0.80;;;;;;;;;;4813113;28;20203;-75
2021/08/08 00:43:26;;;;;;;4.13;1.50;;;;;;;;;;4809760;28;20195;-75
2021/08/08 00:45:49;;;;;;;2.80;1.07;;;19.80;51.60;;;;;;4814568;28;20274;-74
2021/08/08 00:48:16;;;;;;;2.30;0.83;;;18.80;51.20;;;;;;4808719;28;20205;-73
2021/08/08 00:50:43;;;;;;;3.87;1.33;;;19.10;52.10;;;;;;4813331;28;20744;-74
2021/08/08 00:53:09;;;;;;;1.93;0.70;;;18.90;51.20;;;;;;4808174;28;20717;-74
2021/08/08 00:55:34;;;;;;;2.47;0.87;;;;;;;;;;4806207;28;20254;-74
2021/08/08 00:57:57;;;;;;;2.03;0.70;;;;;;;;;;4800809;28;20240;-74
2021/08/08 01:00:21;;;;;;;2.90;1.00;;;19.30;52.10;;;;;;4815853;28;20234;-76
2021/08/08 01:02:49;;;;;;;3.80;1.30;;;19.50;51.40;;;;;;4807356;28;20285;-74
2021/08/08 01:05:16;;;;;;;1.43;0.60;;;19.90;51.60;;;;;;4807969;28;20224;-73
2021/08/08 01:07:46;;;;;;;3.93;1.33;;;19.20;52.10;;;;;;4816957;28;20219;-78
2021/08/08 01:10:10;;;;;;;3.73;1.40;;;19.60;52.10;;;;;;4808529;28;20322;-74
2021/08/08 01:12:37;;;;;;;1.67;0.57;;;19.20;52.20;;;;;;4805709;28;20700;-77
2021/08/08 01:15:00;;;;;;;1.63;0.60;;;19.20;51.40;;;;;;4812102;28;20203;-75
2021/08/08 01:17:24;;;;;;;3.07;1.10;;;19.30;52.20;;;;;;4810449;28;20217;-74
2021/08/08 01:19:53;;;;;;;2.40;0.90;;;19.30;51.40;;;;;;4785097;28;20225;-73
2021/08/08 01:22:18;;;;;;;2.60;0.97;;;18.80;51.30;;;;;;4809358;28;20299;-75
2021/08/08 01:24:45;;;;;;;4.17;1.40;;;19.10;51.40;;;;;;4808617;28;20192;-74
2021/08/08 01:27:09;;;;;;;1.87;0.77;;;19.20;52.20;;;;;;4804190;28;20203;-75
2021/08/08 01:29:34;;;;;;;2.63;1.00;;;19.20;52.20;;;;;;4810468;28;20702;-74
2021/08/08 01:31:58;;;;;;;2.03;0.67;;;19.00;51.30;;;;;;4809070;28;20199;-73
2021/08/08 01:34:29;;;;;;;1.97;0.70;;;;;;;;;;4820233;28;20304;-74
2021/08/08 01:36:54;;;;;;;1.50;0.60;;;;;;;;;;4812349;28;20795;-73
2021/08/08 01:39:20;;;;;;;3.20;1.07;;;19.60;51.80;;;;;;4810097;28;20238;-74
2021/08/08 01:41:52;;;;;;;2.67;0.97;;;19.10;52.10;;;;;;4808779;28;20196;-74
2021/08/08 01:44:15;;;;;;;2.93;1.00;;;18.50;51.50;;;;;;4808043;28;20199;-76
2021/08/08 01:46:42;;;;;;;3.03;1.20;;;19.20;52.10;;;;;;4812704;28;20214;-75
2021/08/08 01:49:25;;;;;;;3.27;1.17;;;18.90;51.30;;;;;;4813623;28;20238;-77
2021/08/08 01:51:48;;;;;;;6.37;2.13;;;19.10;52.10;;;;;;4814326;28;20192;-74
2021/08/08 01:54:13;;;;;;;2.83;0.87;;;19.10;51.60;;;;;;4811165;28;21138;-74
2021/08/08 01:56:40;;;;;;;1.97;0.67;;;18.80;51.30;;;;;;4785803;28;20204;-75
2021/08/08 01:59:03;;;;;;;2.33;0.80;;;19.20;52.20;;;;;;4804660;28;20212;-74
2021/08/08 02:01:29;;;;;;;3.20;1.03;;;19.30;52.20;;;;;;4816006;28;20207;-74
2021/08/08 02:03:56;;;;;;;1.60;0.57;;;;;;;;;;4806615;28;20629;-74
2021/08/08 02:06:19;;;;;;;3.10;1.10;;;19.50;51.70;;;;;;4793973;28;20227;-74
2021/08/08 02:08:48;;;;;;;4.93;1.57;;;;;;;;;;4822035;28;20618;-75
2021/08/08 02:11:14;;;;;;;2.77;0.93;;;;;;;;;;4798779;28;20200;-75
2021/08/08 02:13:48;;;;;;;4.27;1.40;;;20.50;52.70;;;;;;4814889;28;20195;-74
2021/08/08 02:16:13;;;;;;;2.57;0.93;;;20.00;52.70;;;;;;4806834;28;20263;-74
2021/08/08 02:18:36;;;;;;;2.33;0.83;;;;;;;;;;4807740;28;20242;-74
2021/08/08 02:20:59;;;;;;;2.30;0.73;;;;;;;;;;4812372;28;20238;-73
2021/08/08 02:23:23;;;;;;;2.53;0.87;;;20.30;52.10;;;;;;4806313;28;20233;-74
2021/08/08 02:25:50;;;;;;;4.30;1.43;;;20.20;52.00;;;;;;4809685;28;20216;-74
2021/08/08 02:28:19;;;;;;;3.47;1.03;;;20.00;52.70;;;;;;4793508;28;20249;-75
2021/08/08 02:30:42;;;;;;;3.87;1.33;;;20.00;52.30;;;;;;4804162;28;20249;-73
2021/08/08 02:33:07;;;;;;;2.47;0.90;;;20.00;52.70;;;;;;4809039;28;20564;-75
2021/08/08 02:35:32;;;;;;;3.07;1.00;;;19.80;51.90;;;;;;4809843;28;20209;-74
2021/08/08 02:37:55;;;;;;;1.33;0.50;;;;;;;;;;4811102;28;20736;-74
2021/08/08 02:40:18;;;;;;;3.03;0.93;;;20.30;52.80;;;;;;4789853;28;20202;-78
2021/08/08 02:42:43;;;;;;;4.67;1.40;;;20.60;52.40;;;;;;4798926;28;20268;-75
2021/08/08 02:45:06;;;;;;;2.20;0.77;;;20.60;52.90;;;;;;4808886;28;20247;-79
2021/08/08 02:47:30;;;;;;;2.30;0.90;;;;;;;;;;4809711;28;20193;-80
2021/08/08 02:49:55;;;;;;;2.03;0.70;;;20.90;52.90;;;;;;4804372;28;20566;-77
2021/08/08 02:52:18;;;;;;;2.27;0.80;;;;;;;;;;4809104;28;20685;-73
2021/08/08 02:54:41;;;;;;;3.77;1.23;;;21.60;52.20;;;;;;4801203;28;20194;-85
2021/08/08 02:57:05;;;;;;;1.93;0.67;;;;;;;;;;4809191;28;20208;-86
2021/08/08 02:59:28;;;;;;;3.00;1.00;;;21.50;52.70;;;;;;4793135;28;20756;-83
2021/08/08 03:01:53;;;;;;;2.80;0.97;;;;;;;;;;4795953;28;20312;-83
2021/08/08 03:04:16;;;;;;;2.00;0.70;;;21.60;52.30;;;;;;4819656;28;20205;-87
2021/08/08 03:06:46;;;;;;;3.90;1.33;;;21.90;53.20;;;;;;4783729;28;20231;-85
2021/08/08 03:09:10;;;;;;;2.27;0.73;;;;;;;;;;4830616;28;20653;-84
2021/08/08 03:11:32;;;;;;;1.80;0.60;;;;;;;;;;4817367;28;20203;-85
2021/08/08 03:13:55;;;;;;;1.47;0.57;;;21.80;53.10;;;;;;4824422;28;20197;-88
2021/08/08 03:16:19;;;;;;;3.40;1.13;;;21.60;53.30;;;;;;4793942;28;20197;-74
2021/08/08 03:18:41;;;;;;;2.87;0.93;;;21.40;52.50;;;;;;4776012;28;20735;-88
2021/08/08 03:21:06;;;;;;;1.70;0.60;;;21.90;52.60;;;;;;4815642;28;20233;-81
2021/08/08 03:23:30;;;;;;;2.73;0.87;;;21.50;52.50;;;;;;4825221;28;20243;-85
2021/08/08 03:25:55;;;;;;;1.23;0.43;;;;;;;;;;4807983;28;20231;-77
2021/08/08 03:28:17;;;;;;;2.30;0.80;;;;;;;;;;4808927;28;20203;-80
2021/08/08 03:30:40;;;;;;;3.40;1.03;;;21.00;52.60;;;;;;4807377;28;20200;-88
2021/08/08 03:33:04;;;;;;;2.03;0.70;;;21.20;52.60;;;;;;4804431;28;20916;-81
2021/08/08 03:35:26;;;;;;;2.17;0.80;;;20.70;52.50;;;;;;4810558;28;20204;-87
2021/08/08 03:37:49;;;;;;;3.87;1.27;;;;;;;;;;4814154;28;20195;-84
2021/08/08 03:40:16;;;;;;;4.33;1.27;;;21.30;52.90;;;;;;4805012;28;20234;-79
2021/08/08 03:42:41;;;;;;;2.87;0.90;;;20.00;52.30;;;;;;4813082;28;20262;-74
2021/08/08 03:45:04;;;;;;;2.47;0.83;;;21.20;52.70;;;;;;4803713;28;20209;-74
2021/08/08 03:47:28;;;;;;;2.23;0.77;;;;;;;;;;4807034;28;20228;-74
2021/08/08 03:49:52;;;;;;;4.17;1.47;;;;;;;;;;4812221;28;20294;-73
2021/08/08 03:52:14;;;;;;;2.13;0.70;;;;;;;;;;4808670;28;20200;-74
2021/08/08 03:54:37;;;;;;;4.00;1.20;;;;;;;;;;4794353;28;20258;-74
2021/08/08 03:57:01;;;;;;;3.23;0.87;;;20.00;53.00;;;;;;4810210;28;20200;-76
2021/08/08 03:59:26;;;;;;;2.97;1.07;;;;;;;;;;4811623;28;20254;-73
2021/08/08 04:01:49;;;;;;;4.03;1.40;;;20.00;52.30;;;;;;4795343;28;20286;-74
2021/08/08 04:04:12;;;;;;;2.33;0.93;;;;;;;;;;4809585;28;20200;-76
2021/08/08 04:06:34;;;;;;;1.67;0.73;;;;;;;;;;4805377;28;20223;-77
2021/08/08 04:08:58;;;;;;;1.40;0.57;;;;;;;;;;4802774;28;20200;-81
2021/08/08 04:11:21;;;;;;;2.47;0.80;;;;;;;;;;4798794;28;20203;-85
2021/08/08 04:14:05;;;;;;;2.47;0.80;;;19.80;52.90;;;;;;4827867;28;20194;-84
2021/08/08 04:16:49;;;;;;;3.63;1.30;;;19.30;51.90;;;;;;4807562;28;20181;-83
2021/08/08 04:19:32;;;;;;;1.40;0.60;;;;;;;;;;4812500;28;20840;-76
2021/08/08 04:22:14;;;;;;;1.63;0.50;;;19.60;51.90;;;;;;4812991;28;20188;-88
2021/08/08 04:24:58;;;;;;;2.20;0.77;;;20.30;52.10;;;;;;4808493;28;20192;-88
2021/08/08 04:27:41;;;;;;;3.57;1.27;;;20.00;51.90;;;;;;4816964;28;20241;-87
2021/08/08 04:30:27;;;;;;;1.30;0.50;;;19.50;52.50;;;;;;4807972;28;20658;-89
2021/08/08 04:33:10;;;;;;;1.63;0.60;;;;;;;;;;4806819;28;20188;-86
2021/08/08 04:35:53;;;;;;;2.37;0.83;;;;;;;;;;4808468;28;20186;-86
2021/08/08 04:38:36;;;;;;;2.17;0.83;;;;;;;;;;4815863;28;20179;-85
2021/08/08 04:41:19;;;;;;;3.37;1.17;;;;;;;;;;4801065;28;20554;-80
2021/08/08 04:44:02;;;;;;;1.93;0.70;;;19.40;51.10;;;;;;4808703;28;20671;-87
2021/08/08 04:46:46;;;;;;;4.97;1.63;;;19.10;51.60;;;;;;4807839;28;20704;-84
2021/08/08 04:49:29;;;;;;;1.60;0.70;;;18.50;50.50;;;;;;4808013;28;20176;-86
2021/08/08 04:52:12;;;;;;;1.90;0.80;;;;;;;;;;4821338;28;20187;-84
2021/08/08 04:54:54;;;;;;;1.67;0.70;;;19.00;50.30;;;;;;4821019;28;20692;-81
2021/08/08 04:57:37;;;;;;;2.20;0.87;;;;;;;;;;4806539;28;20182;-84
2021/08/08 05:00:20;;;;;;;2.93;1.10;;;18.10;49.80;;;;;;4808644;28;20190;-85
2021/08/08 05:03:04;;;;;;;1.83;0.80;;;18.70;50.60;;;;;;4810019;28;20224;-77
2021/08/08 05:05:49;;;;;;;3.87;1.47;;;17.70;49.50;;;;;;4805494;28;20172;-77
2021/08/08 05:08:31;;;;;;;2.40;0.87;;;;;;;;;;4804763;28;20187;-87
2021/08/08 05:11:16;;;;;;;1.47;0.60;;;18.20;50.20;;;;;;4810825;28;20613;-84
2021/08/08 05:14:02;;;;;;;2.03;0.80;;;18.00;49.80;;;;;;4811730;28;20192;-82
2021/08/08 05:16:50;;;;;;;3.57;1.57;;;18.00;49.40;;;;;;4806089;28;20186;-83
2021/08/08 05:19:34;;;;;;;1.30;0.50;;;17.60;49.30;;;;;;4809022;28;20194;-82
2021/08/08 05:22:17;;;;;;;1.70;0.70;;;;;;;;;;4809783;28;20192;-84
2021/08/08 05:24:59;;;;;;;2.10;0.73;;;;;;;;;;4803908;28;20188;-83
2021/08/08 05:27:42;;;;;;;3.57;1.37;;;;;;;;;;4803097;28;20211;-85
2021/08/08 05:30:28;;;;;;;1.17;0.57;;;18.20;49.70;;;;;;4817402;28;20198;-83
2021/08/08 05:33:11;;;;;;;1.67;0.80;;;;;;;;;;4809689;28;20191;-84
2021/08/08 05:35:55;;;;;;;1.90;1.00;;;17.90;49.90;;;;;;4813833;28;20191;-76
2021/08/08 05:38:38;;;;;;;3.30;1.23;;;;;;;;;;4815061;28;20194;-87
2021/08/08 05:41:21;;;;;;;3.10;1.07;;;;;;;;;;4817762;28;20185;-83
2021/08/08 05:44:04;;;;;;;2.60;1.17;;;18.00;49.10;;;;;;4824237;28;20188;-81
2021/08/08 05:46:47;;;;;;;3.23;1.23;;;18.10;49.00;;;;;;4814714;28;20212;-84
2021/08/08 05:49:30;;;;;;;4.27;1.10;;;18.30;49.40;;;;;;4813494;28;20191;-84
2021/08/08 05:52:14;;;;;;;4.60;1.07;;;17.90;49.80;;;;;;4802808;28;20547;-74
2021/08/08 05:54:56;;;;;;;2.37;0.63;;;16.40;49.20;;;;;;4802830;28;20194;-82
2021/08/08 05:57:40;;;;;;;6.50;1.57;;;;;;;;;;4803836;28;20190;-82
2021/08/08 06:00:23;;;;;;;4.97;1.30;;;;;;;;;;4815167;28;20184;-76
2021/08/08 06:03:13;;;;;;;5.53;1.30;;;;;;;;;;4811414;28;20331;-81
2021/08/08 06:05:56;;;;;;;1.93;0.60;;;;;;;;;;4813320;28;20190;-84
2021/08/08 06:08:40;;;;;;;5.00;1.27;;;18.10;49.80;;;;;;4805803;28;20218;-85
2021/08/08 06:11:23;;;;;;;3.67;1.03;;;;;;;;;;4811748;28;20186;-85
2021/08/08 06:14:06;;;;;;;3.80;1.00;;;;;;;;;;4808970;28;20199;-79
2021/08/08 06:16:49;;;;;;;5.23;1.33;;;18.20;49.30;;;;;;4814689;28;20186;-78
2021/08/08 06:19:32;;;;;;;2.87;0.87;;;;;;;;;;4826446;28;20188;-83
2021/08/08 06:22:15;;;;;;;2.20;0.70;;;17.80;49.30;;;;;;4807032;28;20192;-82
2021/08/08 06:24:59;;;;;;;2.67;0.80;;;18.20;50.30;;;;;;4805716;28;20186;-81
2021/08/08 06:27:42;;;;;;;7.03;1.73;;;;;;;;;;4806952;28;20686;-79
2021/08/08 06:30:24;;;;;;;4.43;1.23;;;;;;;;;;4809931;28;20193;-78
2021/08/08 06:32:59;;;;;;;4.13;1.13;;;18.40;49.80;;;;;;4812469;28;20184;-76
2021/08/08 06:35:22;;;;;;;3.93;1.10;;;;;;;;;;4809062;28;20204;-75
2021/08/08 06:37:45;;;;;;;7.30;1.67;;;;;;;;;;4813640;28;20192;-76
2021/08/08 06:40:13;;;;;;;2.90;0.70;;;19.10;50.00;;;;;;4809121;28;20188;-74
2021/08/08 06:42:36;;;;;;;2.87;0.77;;;18.60;50.00;;;;;;4785513;28;20607;-76
2021/08/08 06:45:01;;;;;;;3.60;0.90;;;;;;;;;;4808940;28;20246;-75
2021/08/08 06:47:23;;;;;;;3.17;0.80;;;;;;;;;;4774283;28;20221;-76
2021/08/08 06:49:46;;;;;;;4.57;1.27;;;;;;;;;;4795265;28;20251;-74
2021/08/08 06:52:10;;;;;;;3.83;1.00;;;;;;;;;;4797983;28;20215;-75
2021/08/08 06:54:33;;;;;;;2.97;0.80;;;18.90;50.30;;;;;;4816223;28;20250;-74
2021/08/08 06:56:57;;;;;;;2.03;0.53;;;18.70;51.10;;;;;;4799888;28;21048;-76
2021/08/08 06:59:24;;;;;;;3.37;0.87;;;19.30;51.30;;;;;;4801361;28;20246;-79
2021/08/08 07:01:47;;;;;;;5.63;1.43;;;19.40;51.30;;;;;;4810671;28;20222;-74
2021/08/08 07:04:09;;;;;;;2.90;0.80;;;19.20;50.50;;;;;;4821488;28;20203;-76
2021/08/08 07:06:32;;;;;;;2.30;0.70;;;;;;;;;;4821372;28;20596;-74
2021/08/08 07:08:55;;;;;;;2.33;0.70;;;;;;;;;;4836973;28;20226;-78
2021/08/08 07:11:18;;;;;;;3.03;0.80;;;;;;;;;;4837779;28;20237;-75
2021/08/08 07:13:43;;;;;;;5.03;1.23;;;19.40;50.90;;;;;;4820750;28;20286;-74
2021/08/08 07:16:06;;;;;;;3.27;0.87;;;19.50;51.60;;;;;;4837509;28;20203;-74
2021/08/08 07:18:29;;;;;;;3.03;0.77;;;19.10;51.00;;;;;;4837613;28;20664;-74
2021/08/08 07:20:52;;;;;;;5.60;1.43;;;20.40;52.20;;;;;;4837005;28;20226;-74
2021/08/08 07:23:15;;;;;;;2.77;0.73;;;19.50;51.50;;;;;;4837210;28;20207;-73
2021/08/08 07:25:39;;;;;;;7.33;1.87;;;;;;;;;;4823297;28;20551;-75
2021/08/08 07:28:01;;;;;;;2.97;0.80;;;20.70;52.10;;;;;;4814522;28;20244;-77
2021/08/08 07:30:25;;;;;;;3.87;1.03;;;20.00;51.80;;;;;;4807039;28;20200;-75
2021/08/08 07:32:48;;;;;;;5.80;1.27;;;;;;;;;;4812227;28;20204;-74
2021/08/08 07:35:12;;;;;;;3.23;0.93;;;;;;;;;;4811986;28;20203;-77
2021/08/08 07:37:35;;;;;;;3.27;0.87;;;20.30;51.90;;;;;;4814483;28;20688;-74
2021/08/08 07:39:58;;;;;;;2.40;0.63;;;;;;;;;;4812009;28;20249;-78
2021/08/08 07:42:20;;;;;;;5.17;1.30;;;21.50;52.60;;;;;;4823792;28;20674;-74
2021/08/08 07:44:43;;;;;;;6.50;1.60;;;21.20;52.50;;;;;;4825481;28;20261;-74
2021/08/08 07:47:07;;;;;;;3.57;0.90;;;21.40;53.50;;;;;;4809742;28;20201;-75
2021/08/08 07:49:30;;;;;;;3.53;1.00;;;;;;;;;;4800530;28;20288;-74
2021/08/08 07:51:53;;;;;;;5.13;1.37;;;;;;;;;;4807608;28;20180;-75
2021/08/08 07:54:17;;;;;;;1.30;0.40;;;;;;;;;;4795009;28;20578;-74
2021/08/08 07:56:40;;;;;;;3.57;1.00;;;;;;;;;;4807396;28;20618;-75
2021/08/08 07:59:04;;;;;;;2.37;0.70;;;20.80;52.60;;;;;;4793253;28;20205;-74
2021/08/08 08:01:27;;;;;;;3.63;0.97;;;;;;;;;;4803707;28;20261;-74
2021/08/08 08:03:51;;;;;;;3.83;0.97;;;21.90;53.30;;;;;;4812764;28;20202;-73
2021/08/08 08:06:14;;;;;;;4.20;1.13;;;21.50;53.70;;;;;;4810698;28;20210;-74
2021/08/08 08:08:37;;;;;;;2.77;0.70;;;21.90;53.30;;;;;;4803791;28;20222;-75
2021/08/08 08:11:00;;;;;;;3.87;0.97;;;21.90;54.00;;;;;;4801368;28;20218;-75
2021/08/08 08:13:23;;;;;;;3.67;0.97;;;21.80;53.40;;;;;;4814643;28;20206;-74
2021/08/08 08:15:46;;;;;;;5.50;1.43;;;21.80;53.50;;;;;;4801038;28;20257;-73
2021/08/08 08:18:09;;;;;;;3.23;0.90;;;;;;;;;;4810198;28;20648;-75
2021/08/08 08:20:34;;;;;;;2.40;0.63;;;22.30;54.80;;;;;;4778060;28;20264;-75
2021/08/08 08:22:57;;;;;;;1.63;0.43;;;22.30;54.50;;;;;;4811121;28;20203;-74
2021/08/08 08:25:19;;;;;;;3.20;0.87;;;21.90;54.10;;;;;;4807313;28;20206;-74
2021/08/08 08:27:44;;;;;;;4.50;1.23;;;;;;;;;;4804856;28;20664;-74
2021/08/08 08:30:07;;;;;;;3.73;0.93;;;22.60;54.10;;;;;;4803827;28;20631;-75
2021/08/08 08:32:30;;;;;;;3.10;0.80;;;23.00;54.60;;;;;;4792583;28;20199;-74
2021/08/08 08:34:54;;;;;;;5.27;1.30;;;;;;;;;;4804845;28;20198;-76
2021/08/08 08:37:19;;;;;;;2.00;0.50;;;23.30;55.20;;;;;;4798676;28;20200;-79
2021/08/08 08:39:42;;;;;;;5.90;1.47;;;;;;;;;;4814614;28;20211;-76
2021/08/08 08:42:08;;;;;;;2.60;0.70;;;23.80;56.50;;;;;;4814972;28;20301;-77
2021/08/08 08:44:31;;;;;;;2.90;0.73;;;;;;;;;;4813824;28;20265;-76
2021/08/08 08:46:56;;;;;;;5.97;1.33;;;23.90;56.40;;;;;;4798878;28;20243;-76
2021/08/08 08:49:20;;;;;;;2.30;0.63;;;24.40;56.40;;;;;;4783019;28;20220;-73
2021/08/08 08:51:48;;;;;;;5.90;1.47;;;24.00;56.70;;;;;;4798669;28;20201;-74
2021/08/08 08:54:14;;;;;;;2.37;0.77;;;23.80;55.60;;;;;;4807150;28;20200;-75
2021/08/08 08:56:37;;;;;;;2.23;0.63;;;24.00;55.70;;;;;;4814839;28;20258;-74
2021/08/08 08:59:02;;;;;;;2.10;0.60;;;24.30;56.90;;;;;;4829195;28;20263;-84
2021/08/08 09:01:25;;;;;;;3.17;0.80;;;24.80;56.20;;;;;;4815265;28;20227;-87
2021/08/08 09:03:49;;;;;;;5.27;1.20;;;25.10;41.60;;;;;;4836931;28;20265;-75
2021/08/08 09:06:12;;;;;;;2.90;0.70;;;;;;;;;;4840852;28;20742;-92
2021/08/08 09:08:35;;;;;;;3.83;0.93;;;25.40;41.80;;;;;;4804967;28;20217;-88
2021/08/08 09:11:04;;;;;;;2.57;0.70;;;25.20;43.00;;;;;;4824908;28;20284;-86
2021/08/08 09:13:29;;;;;;;3.00;0.67;;;;;;;;;;4810924;28;20741;-88
2021/08/08 09:15:51;;;;;;;4.97;0.97;;;;;;;;;;4810606;28;20203;-90
2021/08/08 09:18:17;;;;;;;4.47;0.97;;;26.40;43.20;;;;;;4797713;28;20183;-86
2021/08/08 09:20:54;;;;;;;6.20;1.27;;;;;;;;;;4802103;28;20200;-75
2021/08/08 09:23:18;;;;;;;3.07;0.67;;;27.30;44.70;;;;;;4806035;28;20247;-76
2021/08/08 09:25:49;;;;;;;6.57;1.30;;;28.10;45.00;;;;;;4801740;28;20202;-74
2021/08/08 09:28:14;;;;;;;5.07;1.00;;;28.30;45.40;;;;;;4801861;28;20251;-74
2021/08/08 09:30:39;;;;;;;2.13;0.50;;;28.40;45.20;;;;;;4802706;28;20555;-74
2021/08/08 09:33:03;;;;;;;2.60;0.70;;;27.40;44.20;;;;;;4806668;28;20203;-73
2021/08/08 09:35:33;;;;;;;3.50;0.80;;;27.50;45.30;;;;;;4821403;28;20560;-76
2021/08/08 09:38:00;;;;;;;5.83;1.30;;;27.30;45.10;;;;;;4785423;28;20198;-74
2021/08/08 09:40:22;;;;;;;2.30;0.60;;;26.80;44.00;;;;;;4803146;28;20237;-74
2021/08/08 09:42:46;;;;;;;8.07;1.70;;;26.90;44.40;;;;;;4812659;28;20198;-73
2021/08/08 09:45:14;;;;;;;4.63;1.07;;;28.10;44.40;;;;;;4835911;28;20918;-77
2021/08/08 09:47:38;;;;;;;3.40;0.73;;;29.00;45.90;;;;;;4821172;28;20663;-80
2021/08/08 09:50:04;;;;;;;5.23;1.13;;;;;;;;;;4811751;28;20263;-75
2021/08/08 09:52:27;;;;;;;4.97;1.17;;;29.00;45.40;;;;;;4812371;28;20187;-74
2021/08/08 09:54:50;;;;;;;7.07;1.50;;;;;;;;;;4809183;28;20560;-79
2021/08/08 09:57:13;;;;;;;4.10;0.90;;;;;;;;;;4801404;28;20286;-75
2021/08/08 09:59:46;;;;;;;4.90;1.00;;;28.90;46.10;;;;;;4805599;28;20189;-75
2021/08/08 10:02:11;;;;;;;3.73;0.80;;;30.90;46.90;;;;;;4811611;28;20297;-87
2021/08/08 10:04:34;;;;;;;3.00;0.80;;;;;;;;;;4803822;28;20213;-85
2021/08/08 10:06:58;;;;;;;2.47;0.60;;;34.90;49.10;;;;;;4802326;28;20306;-80
2021/08/08 10:09:22;;;;;;;3.83;0.95;;;36.40;49.90;;;;;;4812902;28;20558;-82
2021/08/08 10:11:50;;;;;;;12.25;2.20;;;36.60;50.30;;;;;;4809057;28;20219;-82
2021/08/08 10:14:14;;;;;;;4.82;0.95;;;35.50;49.90;;;;;;4817134;28;20254;-85
2021/08/08 10:16:38;;;;;;;2.88;0.60;;;35.10;49.90;;;;;;4816853;28;20198;-89
2021/08/08 10:19:03;;;;;;;3.60;0.77;;;33.80;48.50;;;;;;4825262;28;20230;-81
2021/08/08 10:21:27;;;;;;;5.50;1.05;;;34.20;48.50;;;;;;4810862;28;20246;-84
2021/08/08 10:23:52;;;;;;;7.13;1.33;;;33.70;48.30;;;;;;4812993;28;20179;-82
2021/08/08 10:26:15;;;;;;;4.13;0.88;;;33.70;48.40;;;;;;4814238;28;20195;-86
2021/08/08 10:28:38;;;;;;;3.40;0.67;;;;;;;;;;4820750;28;20198;-79
2021/08/08 10:31:03;;;;;;;2.67;0.57;;;34.40;48.50;;;;;;4801715;28;20192;-83
2021/08/08 10:33:25;;;;;;;3.95;0.82;;;36.10;49.30;;;;;;4784939;28;20271;-83
2021/08/08 10:35:51;;;;;;;10.07;1.90;;;37.80;50.60;;;;;;4800395;28;20188;-83
2021/08/08 10:38:14;;;;;;;4.88;1.00;;;39.10;51.40;;;;;;4802093;28;20184;-88
2021/08/08 10:40:39;;;;;;;5.18;1.00;;;40.20;52.00;;;;;;4805070;28;20560;-82
2021/08/08 10:43:02;;;;;;;8.73;1.23;;;41.10;51.70;;;;;;4819743;28;20218;-78
2021/08/08 10:45:26;;;;;;;11.45;1.58;;;40.80;50.90;;;;;;4815426;28;20203;-87
2021/08/08 10:47:55;;;;;;;20.35;2.63;;;41.40;51.20;;;;;;4833724;28;20206;-78
2021/08/08 10:50:18;;;;;;;9.43;2.15;;;42.30;52.90;;;;;;4783696;28;20228;-81
2021/08/08 10:52:43;;;;;;;13.88;2.03;;;43.20;53.20;;;;;;4803324;28;20235;-79
2021/08/08 10:55:07;;;;;;;8.50;1.20;;;43.80;52.60;;;;;;4821847;28;20244;-87
2021/08/08 10:57:30;;;;;;;10.75;3.85;;;;;;;;;;4795227;28;20259;-78
2021/08/08 10:59:55;;;;;;;22.73;2.92;;;;;;;;;;4794510;28;20184;-86
2021/08/08 11:02:26;;;;;;;6.47;1.27;;;43.80;53.50;;;;;;4820276;28;20305;-87
2021/08/08 11:04:49;;;;;;;22.90;2.72;;;;;;;;;;4812473;28;20540;-83
2021/08/08 11:07:12;;;;;;;11.93;1.67;;;;;;;;;;4801586;28;20226;-81
2021/08/08 11:09:39;;;;;;;14.85;1.98;;;39.40;52.00;;;;;;4815832;28;20236;-87
2021/08/08 11:12:03;;;;;;;8.55;1.13;;;37.90;49.70;;;;;;4808156;28;20226;-85
2021/08/08 11:14:26;;;;;;;10.75;1.42;;;36.50;50.90;;;;;;4816486;28;20211;-83
2021/08/08 11:16:59;;;;;;;22.40;2.78;;;35.80;50.60;;;;;;4783424;28;20227;-77
2021/08/08 11:19:22;;;;;;;14.65;1.95;;;;;;;;;;4801499;28;20215;-85
2021/08/08 11:21:45;;;;;;;18.08;2.30;;;38.00;49.60;;;;;;4818442;28;20565;-86
2021/08/08 11:24:10;;;;;;;11.15;1.48;;;38.70;50.90;;;;;;4819625;28;20183;-80
2021/08/08 11:26:36;;;;;;;10.02;1.38;;;37.50;50.30;;;;;;4800472;28;20243;-84
2021/08/08 11:29:00;;;;;;;7.53;1.00;;;37.70;51.20;;;;;;4801341;28;20192;-87
2021/08/08 11:31:25;;;;;;;8.98;1.17;;;39.20;51.70;;;;;;4801201;28;20192;-75
2021/08/08 11:33:48;;;;;;;21.45;2.58;;;;;;;;;;4799128;28;20199;-74
2021/08/08 11:36:10;;;;;;;13.07;1.73;;;39.80;50.70;;;;;;4814533;28;20195;-77
2021/08/08 11:38:34;;;;;;;8.90;1.23;;;;;;;;;;4814824;28;20642;-79
2021/08/08 11:40:57;;;;;;;17.60;2.22;;;42.60;53.10;;;;;;4808178;28;20614;-81
2021/08/08 11:43:21;;;;;;;9.45;1.30;;;42.30;52.00;;;;;;4814467;28;20187;-84
2021/08/08 11:45:45;;;;;;;12.05;1.58;;;43.00;53.20;;;;;;4813914;28;20203;-83
2021/08/08 11:48:09;;;;;;;6.00;1.30;;;43.30;53.40;;;;;;4812058;28;20183;-75
2021/08/08 11:50:32;;;;;;;3.10;0.85;;;42.40;52.60;;;;;;4815950;28;20212;-77
2021/08/08 11:52:56;;;;;;;2.22;0.90;;;40.50;52.00;;;;;;4813557;28;20187;-85
2021/08/08 11:55:20;;;;;;;1.73;0.80;;;40.80;52.30;;;;;;4810525;28;20615;-81
2021/08/08 11:57:43;;;;;;;4.43;1.45;;;;;;;;;;4802918;28;20187;-78
2021/08/08 12:00:08;;;;;;;1.70;0.80;;;43.60;53.50;;;;;;4806606;28;20720;-81
2021/08/08 12:02:33;;;;;;;2.30;1.05;;;44.40;53.60;;;;;;4800336;28;20254;-78
2021/08/08 12:04:56;;;;;;;1.48;0.93;;;43.20;53.50;;;;;;4798432;28;20212;-84
2021/08/08 12:07:21;;;;;;;1.45;0.77;;;43.40;53.20;;;;;;4803267;28;20565;-77
2021/08/08 12:09:47;;;;;;;9.70;4.63;;;41.20;52.60;;;;;;4809615;28;20736;-75
2021/08/08 12:12:10;;;;;;;3.00;1.55;;;;;;;;;;4798158;28;20231;-75
2021/08/08 12:14:36;;;;;;;0.70;0.60;;;44.00;53.30;;;;;;4818422;28;20250;-75
2021/08/08 12:17:06;;;;;;;1.27;0.70;;;45.50;54.20;;;;;;4813494;28;20228;-75
2021/08/08 12:19:29;;;;;;;1.40;0.90;;;46.30;54.20;;;;;;4797865;28;20222;-75
2021/08/08 12:22:01;;;;;;;1.77;1.10;;;45.90;54.20;;;;;;4808215;28;20187;-78
2021/08/08 12:24:33;;;;;;;0.47;0.47;;;44.70;53.70;;;;;;4806168;28;20195;-76
2021/08/08 12:26:55;;;;;;;1.45;0.82;;;43.10;53.10;;;;;;4809583;28;20187;-75
2021/08/08 12:29:18;;;;;;;0.50;0.40;;;42.70;53.20;;;;;;4812788;28;20270;-76
2021/08/08 12:31:42;;;;;;;0.55;0.40;;;40.90;52.70;;;;;;4812935;28;20202;-80
2021/08/08 12:34:09;;;;;;;0.43;0.40;;;39.70;51.90;;;;;;4821461;28;20293;-78
2021/08/08 12:36:40;;;;;;;0.95;0.63;;;40.70;52.20;;;;;;4813389;28;20254;-75
2021/08/08 12:39:02;;;;;;;0.60;0.57;;;40.60;52.20;;;;;;4796957;28;20192;-76
2021/08/08 12:41:30;;;;;;;0.30;0.30;;;40.60;52.30;;;;;;4826746;28;20265;-75
2021/08/08 12:43:57;;;;;;;0.85;0.60;;;40.90;52.30;;;;;;4801708;28;20208;-75
2021/08/08 12:46:19;;;;;;;0.82;0.65;;;40.40;52.30;;;;;;4811604;28;20200;-75
2021/08/08 12:48:42;;;;;;;0.32;0.25;;;39.00;51.90;;;;;;4811420;28;20195;-75
2021/08/08 12:51:06;;;;;;;1.17;0.90;;;38.20;51.40;;;;;;4812305;28;20733;-77
2021/08/08 12:53:28;;;;;;;0.60;0.50;;;39.60;51.80;;;;;;4817792;28;20265;-77
2021/08/08 12:55:54;;;;;;;0.40;0.40;;;40.40;52.20;;;;;;4810914;28;20202;-74
2021/08/08 12:58:17;;;;;;;1.05;0.95;;;39.20;51.90;;;;;;4809912;28;20218;-75
2021/08/08 13:00:39;;;;;;;2.25;2.05;;;38.00;51.40;;;;;;4811255;28;20215;-75
2021/08/08 13:03:03;;;;;;;0.30;0.30;;;36.40;50.80;;;;;;4814411;28;20216;-76
2021/08/08 13:05:26;;;;;;;0.40;0.30;;;;;;;;;;4811399;28;20204;-75
2021/08/08 13:07:50;;;;;;;0.38;0.38;;;34.00;50.20;;;;;;4802911;28;20665;-75
2021/08/08 13:10:13;;;;;;;0.10;0.10;;;33.10;49.80;;;;;;4803374;28;20617;-77
2021/08/08 13:12:39;;;;;;;0.30;0.30;;;32.20;49.20;;;;;;4803498;28;20605;-76
2021/08/08 13:15:02;;;;;;;0.22;0.22;;;32.50;49.20;;;;;;4812986;28;20195;-73
2021/08/08 13:17:26;;;;;;;0.10;0.10;;;;;;;;;;4811270;28;20660;-74
2021/08/08 13:19:50;;;;;;;0.20;0.20;;;33.20;49.60;;;;;;4817456;28;20226;-75